sensor_id;sensor_type;location;lat;lon;timestamp;P1;durP1;ratioP1;P2;durP2;ratioP2
9675;SDS011;4876;42.656;23.292;2023-02-01T00:00:14;4.27;;;3.77;;
9675;SDS011;4876;42.656;23.292;2023-02-01T00:02:41;4.30;;;3.87;;
9675;SDS011;4876;42.656;23.292;2023-02-01T00:05:08;4.33;;;3.07;;
9675;SDS011;4876;42.656;23.292;2023-02-01T00:07:36;3.63;;;3.23;;
9675;SDS011;4876;42.656;23.292;2023-02-01T00:10:03;4.97;;;3.27;;
9675;SDS011;4876;42.656;23.292;2023-02-01T00:12:33;5.40;;;4.00;;
9675;SDS011;4876;42.656;23.292;2023-02-01T00:15:00;3.90;;;3.50;;
9675;SDS011;4876;42.656;23.292;2023-02-01T00:17:27;6.37;;;3.27;;
9675;SDS011;4876;42.656;23.292;2023-02-01T00:19:53;4.37;;;3.43;;
9675;SDS011;4876;42.656;23.292;2023-02-01T00:22:20;5.43;;;3.40;;
9675;SDS011;4876;42.656;23.292;2023-02-01T00:24:47;8.63;;;4.40;;
9675;SDS011;4876;42.656;23.292;2023-02-01T00:27:13;6.53;;;3.33;;
9675;SDS011;4876;42.656;23.292;2023-02-01T00:29:44;4.80;;;3.30;;
9675;SDS011;4876;42.656;23.292;2023-02-01T00:32:11;4.40;;;3.30;;
9675;SDS011;4876;42.656;23.292;2023-02-01T00:34:38;6.50;;;3.87;;
9675;SDS011;4876;42.656;23.292;2023-02-01T00:37:05;6.93;;;3.50;;
9675;SDS011;4876;42.656;23.292;2023-02-01T00:39:31;5.60;;;3.20;;
9675;SDS011;4876;42.656;23.292;2023-02-01T00:41:59;8.93;;;3.27;;
9675;SDS011;4876;42.656;23.292;2023-02-01T00:44:26;4.40;;;3.10;;
9675;SDS011;4876;42.656;23.292;2023-02-01T00:46:54;4.93;;;3.13;;
9675;SDS011;4876;42.656;23.292;2023-02-01T00:49:21;3.57;;;3.10;;
9675;SDS011;4876;42.656;23.292;2023-02-01T00:51:48;4.73;;;2.93;;
9675;SDS011;4876;42.656;23.292;2023-02-01T00:54:14;4.67;;;3.03;;
9675;SDS011;4876;42.656;23.292;2023-02-01T00:56:41;3.47;;;3.17;;
9675;SDS011;4876;42.656;23.292;2023-02-01T00:59:10;6.90;;;3.40;;
9675;SDS011;4876;42.656;23.292;2023-02-01T01:01:37;4.53;;;2.87;;
9675;SDS011;4876;42.656;23.292;2023-02-01T01:04:05;4.37;;;3.13;;
9675;SDS011;4876;42.656;23.292;2023-02-01T01:06:33;2.90;;;2.60;;
9675;SDS011;4876;42.656;23.292;2023-02-01T01:09:00;2.80;;;2.40;;
9675;SDS011;4876;42.656;23.292;2023-02-01T01:11:30;4.07;;;2.60;;
9675;SDS011;4876;42.656;23.292;2023-02-01T01:13:58;4.40;;;3.27;;
9675;SDS011;4876;42.656;23.292;2023-02-01T01:16:26;7.83;;;2.57;;
9675;SDS011;4876;42.656;23.292;2023-02-01T01:18:54;4.47;;;2.67;;
9675;SDS011;4876;42.656;23.292;2023-02-01T01:21:23;3.77;;;2.87;;
9675;SDS011;4876;42.656;23.292;2023-02-01T01:23:50;5.00;;;2.90;;
9675;SDS011;4876;42.656;23.292;2023-02-01T01:26:18;6.27;;;3.10;;
9675;SDS011;4876;42.656;23.292;2023-02-01T01:28:47;4.00;;;2.63;;
9675;SDS011;4876;42.656;23.292;2023-02-01T01:31:15;3.50;;;2.17;;
9675;SDS011;4876;42.656;23.292;2023-02-01T01:33:43;3.07;;;2.60;;
9675;SDS011;4876;42.656;23.292;2023-02-01T01:36:10;4.53;;;2.30;;
9675;SDS011;4876;42.656;23.292;2023-02-01T01:38:39;3.40;;;2.67;;
9675;SDS011;4876;42.656;23.292;2023-02-01T01:41:06;3.07;;;2.60;;
9675;SDS011;4876;42.656;23.292;2023-02-01T01:43:46;3.47;;;2.47;;
9675;SDS011;4876;42.656;23.292;2023-02-01T01:46:16;4.83;;;2.80;;
9675;SDS011;4876;42.656;23.292;2023-02-01T01:48:44;4.07;;;2.77;;
9675;SDS011;4876;42.656;23.292;2023-02-01T01:51:14;4.20;;;2.70;;
9675;SDS011;4876;42.656;23.292;2023-02-01T01:53:48;3.17;;;2.77;;
9675;SDS011;4876;42.656;23.292;2023-02-01T01:56:20;7.57;;;3.07;;
9675;SDS011;4876;42.656;23.292;2023-02-01T01:58:47;3.57;;;2.70;;
9675;SDS011;4876;42.656;23.292;2023-02-01T02:01:14;5.53;;;3.00;;
9675;SDS011;4876;42.656;23.292;2023-02-01T02:03:42;6.17;;;3.17;;
9675;SDS011;4876;42.656;23.292;2023-02-01T02:06:12;4.70;;;2.80;;
9675;SDS011;4876;42.656;23.292;2023-02-01T02:08:47;4.30;;;2.87;;
9675;SDS011;4876;42.656;23.292;2023-02-01T02:11:15;4.17;;;2.70;;
9675;SDS011;4876;42.656;23.292;2023-02-01T02:13:44;8.10;;;2.90;;
9675;SDS011;4876;42.656;23.292;2023-02-01T02:16:18;4.80;;;2.60;;
9675;SDS011;4876;42.656;23.292;2023-02-01T02:18:54;4.33;;;3.00;;
9675;SDS011;4876;42.656;23.292;2023-02-01T02:21:36;3.23;;;2.50;;
9675;SDS011;4876;42.656;23.292;2023-02-01T02:24:20;4.00;;;2.80;;
9675;SDS011;4876;42.656;23.292;2023-02-01T02:27:04;3.50;;;2.80;;
9675;SDS011;4876;42.656;23.292;2023-02-01T02:29:55;6.50;;;2.67;;
9675;SDS011;4876;42.656;23.292;2023-02-01T02:33:02;5.23;;;3.00;;
9675;SDS011;4876;42.656;23.292;2023-02-01T02:36:01;2.67;;;2.20;;
9675;SDS011;4876;42.656;23.292;2023-02-01T02:38:39;3.40;;;2.40;;
9675;SDS011;4876;42.656;23.292;2023-02-01T02:41:13;4.00;;;2.33;;
9675;SDS011;4876;42.656;23.292;2023-02-01T02:43:58;3.20;;;2.27;;
9675;SDS011;4876;42.656;23.292;2023-02-01T02:46:48;2.67;;;1.87;;
9675;SDS011;4876;42.656;23.292;2023-02-01T02:49:34;2.73;;;2.03;;
9675;SDS011;4876;42.656;23.292;2023-02-01T02:52:09;4.13;;;2.30;;
9675;SDS011;4876;42.656;23.292;2023-02-01T02:54:57;4.00;;;2.30;;
9675;SDS011;4876;42.656;23.292;2023-02-01T02:57:28;3.20;;;2.10;;
9675;SDS011;4876;42.656;23.292;2023-02-01T03:00:16;4.40;;;2.43;;
9675;SDS011;4876;42.656;23.292;2023-02-01T03:03:03;3.23;;;2.10;;
9675;SDS011;4876;42.656;23.292;2023-02-01T03:05:49;1.93;;;1.50;;
9675;SDS011;4876;42.656;23.292;2023-02-01T03:08:18;2.40;;;1.90;;
9675;SDS011;4876;42.656;23.292;2023-02-01T03:10:48;2.97;;;2.27;;
9675;SDS011;4876;42.656;23.292;2023-02-01T03:13:20;4.37;;;1.70;;
9675;SDS011;4876;42.656;23.292;2023-02-01T03:15:57;1.87;;;1.57;;
9675;SDS011;4876;42.656;23.292;2023-02-01T03:18:31;3.10;;;1.97;;
9675;SDS011;4876;42.656;23.292;2023-02-01T03:21:03;2.53;;;1.47;;
9675;SDS011;4876;42.656;23.292;2023-02-01T03:23:35;6.13;;;1.83;;
9675;SDS011;4876;42.656;23.292;2023-02-01T03:26:04;4.70;;;1.67;;
9675;SDS011;4876;42.656;23.292;2023-02-01T03:28:34;4.03;;;2.10;;
9675;SDS011;4876;42.656;23.292;2023-02-01T03:31:03;3.50;;;2.03;;
9675;SDS011;4876;42.656;23.292;2023-02-01T03:33:30;3.50;;;1.97;;
9675;SDS011;4876;42.656;23.292;2023-02-01T03:36:00;4.70;;;1.97;;
9675;SDS011;4876;42.656;23.292;2023-02-01T03:38:37;3.63;;;2.33;;
9675;SDS011;4876;42.656;23.292;2023-02-01T03:41:08;5.33;;;2.10;;
9675;SDS011;4876;42.656;23.292;2023-02-01T03:43:41;3.20;;;1.60;;
9675;SDS011;4876;42.656;23.292;2023-02-01T03:46:16;8.07;;;2.10;;
9675;SDS011;4876;42.656;23.292;2023-02-01T03:48:46;2.60;;;1.77;;
9675;SDS011;4876;42.656;23.292;2023-02-01T03:51:15;3.10;;;1.57;;
9675;SDS011;4876;42.656;23.292;2023-02-01T03:53:46;5.47;;;2.00;;
9675;SDS011;4876;42.656;23.292;2023-02-01T03:56:15;5.37;;;1.67;;
9675;SDS011;4876;42.656;23.292;2023-02-01T03:58:44;3.50;;;2.03;;
9675;SDS011;4876;42.656;23.292;2023-02-01T04:01:24;3.90;;;2.00;;
9675;SDS011;4876;42.656;23.292;2023-02-01T04:03:52;2.13;;;1.53;;
9675;SDS011;4876;42.656;23.292;2023-02-01T04:06:19;4.10;;;2.07;;
9675;SDS011;4876;42.656;23.292;2023-02-01T04:08:47;4.80;;;1.70;;
9675;SDS011;4876;42.656;23.292;2023-02-01T04:11:14;3.90;;;2.17;;
9675;SDS011;4876;42.656;23.292;2023-02-01T04:13:41;5.03;;;2.00;;
9675;SDS011;4876;42.656;23.292;2023-02-01T04:16:07;3.10;;;2.07;;
9675;SDS011;4876;42.656;23.292;2023-02-01T04:18:34;3.67;;;2.20;;
9675;SDS011;4876;42.656;23.292;2023-02-01T04:21:01;2.50;;;2.17;;
9675;SDS011;4876;42.656;23.292;2023-02-01T04:23:28;3.97;;;2.07;;
9675;SDS011;4876;42.656;23.292;2023-02-01T04:26:00;4.80;;;2.40;;
9675;SDS011;4876;42.656;23.292;2023-02-01T04:28:27;3.97;;;2.10;;
9675;SDS011;4876;42.656;23.292;2023-02-01T04:30:54;3.60;;;2.13;;
9675;SDS011;4876;42.656;23.292;2023-02-01T04:33:21;4.77;;;2.53;;
9675;SDS011;4876;42.656;23.292;2023-02-01T04:35:48;6.13;;;2.50;;
9675;SDS011;4876;42.656;23.292;2023-02-01T04:38:15;5.33;;;3.03;;
9675;SDS011;4876;42.656;23.292;2023-02-01T04:40:42;4.63;;;2.53;;
9675;SDS011;4876;42.656;23.292;2023-02-01T04:43:11;4.23;;;2.87;;
9675;SDS011;4876;42.656;23.292;2023-02-01T04:45:37;5.97;;;3.07;;
9675;SDS011;4876;42.656;23.292;2023-02-01T04:48:04;5.47;;;2.97;;
9675;SDS011;4876;42.656;23.292;2023-02-01T04:50:31;11.00;;;3.43;;
9675;SDS011;4876;42.656;23.292;2023-02-01T04:52:58;6.03;;;3.10;;
9675;SDS011;4876;42.656;23.292;2023-02-01T04:55:25;4.53;;;2.77;;
9675;SDS011;4876;42.656;23.292;2023-02-01T04:57:51;6.03;;;3.40;;
9675;SDS011;4876;42.656;23.292;2023-02-01T05:00:20;6.17;;;3.97;;
9675;SDS011;4876;42.656;23.292;2023-02-01T05:02:47;5.10;;;3.23;;
9675;SDS011;4876;42.656;23.292;2023-02-01T05:05:14;4.37;;;3.03;;
9675;SDS011;4876;42.656;23.292;2023-02-01T05:07:41;6.17;;;3.20;;
9675;SDS011;4876;42.656;23.292;2023-02-01T05:10:08;8.10;;;3.00;;
9675;SDS011;4876;42.656;23.292;2023-02-01T05:12:35;4.63;;;3.20;;
9675;SDS011;4876;42.656;23.292;2023-02-01T05:15:21;3.73;;;2.90;;
9675;SDS011;4876;42.656;23.292;2023-02-01T05:17:47;6.20;;;3.90;;
9675;SDS011;4876;42.656;23.292;2023-02-01T05:20:14;7.70;;;3.37;;
9675;SDS011;4876;42.656;23.292;2023-02-01T05:22:41;6.33;;;3.07;;
9675;SDS011;4876;42.656;23.292;2023-02-01T05:25:08;5.50;;;3.37;;
9675;SDS011;4876;42.656;23.292;2023-02-01T05:27:35;5.93;;;3.67;;
9675;SDS011;4876;42.656;23.292;2023-02-01T05:30:02;8.33;;;3.60;;
9675;SDS011;4876;42.656;23.292;2023-02-01T05:32:30;3.37;;;3.07;;
9675;SDS011;4876;42.656;23.292;2023-02-01T05:34:57;7.07;;;3.00;;
9675;SDS011;4876;42.656;23.292;2023-02-01T05:37:24;10.77;;;3.63;;
9675;SDS011;4876;42.656;23.292;2023-02-01T05:39:51;5.20;;;3.57;;
9675;SDS011;4876;42.656;23.292;2023-02-01T05:42:18;9.20;;;4.43;;
9675;SDS011;4876;42.656;23.292;2023-02-01T05:44:45;9.00;;;4.13;;
9675;SDS011;4876;42.656;23.292;2023-02-01T05:47:12;5.87;;;3.50;;
9675;SDS011;4876;42.656;23.292;2023-02-01T05:49:40;5.07;;;3.40;;
9675;SDS011;4876;42.656;23.292;2023-02-01T05:52:06;6.43;;;3.27;;
9675;SDS011;4876;42.656;23.292;2023-02-01T05:54:33;9.50;;;3.30;;
9675;SDS011;4876;42.656;23.292;2023-02-01T05:57:00;9.27;;;3.63;;
9675;SDS011;4876;42.656;23.292;2023-02-01T05:59:27;5.63;;;2.80;;
9675;SDS011;4876;42.656;23.292;2023-02-01T06:01:54;8.07;;;3.17;;
9675;SDS011;4876;42.656;23.292;2023-02-01T06:04:21;7.70;;;3.37;;
9675;SDS011;4876;42.656;23.292;2023-02-01T06:06:49;6.57;;;2.80;;
9675;SDS011;4876;42.656;23.292;2023-02-01T06:09:16;9.70;;;2.87;;
9675;SDS011;4876;42.656;23.292;2023-02-01T06:11:43;4.67;;;2.80;;
9675;SDS011;4876;42.656;23.292;2023-02-01T06:14:09;7.53;;;3.20;;
9675;SDS011;4876;42.656;23.292;2023-02-01T06:16:36;6.87;;;2.90;;
9675;SDS011;4876;42.656;23.292;2023-02-01T06:19:03;5.93;;;3.03;;
9675;SDS011;4876;42.656;23.292;2023-02-01T06:21:30;7.47;;;2.30;;
9675;SDS011;4876;42.656;23.292;2023-02-01T06:23:58;5.57;;;2.67;;
9675;SDS011;4876;42.656;23.292;2023-02-01T06:26:25;5.03;;;2.70;;
9675;SDS011;4876;42.656;23.292;2023-02-01T06:28:53;10.53;;;3.87;;
9675;SDS011;4876;42.656;23.292;2023-02-01T06:31:20;4.83;;;2.80;;
9675;SDS011;4876;42.656;23.292;2023-02-01T06:33:47;8.53;;;2.90;;
9675;SDS011;4876;42.656;23.292;2023-02-01T06:36:15;8.43;;;3.63;;
9675;SDS011;4876;42.656;23.292;2023-02-01T06:38:43;7.37;;;3.13;;
9675;SDS011;4876;42.656;23.292;2023-02-01T06:41:12;10.50;;;3.30;;
9675;SDS011;4876;42.656;23.292;2023-02-01T06:43:39;16.73;;;3.03;;
9675;SDS011;4876;42.656;23.292;2023-02-01T06:46:06;5.73;;;2.50;;
9675;SDS011;4876;42.656;23.292;2023-02-01T06:48:34;8.00;;;2.97;;
9675;SDS011;4876;42.656;23.292;2023-02-01T06:51:01;5.93;;;3.17;;
9675;SDS011;4876;42.656;23.292;2023-02-01T06:53:28;4.03;;;2.17;;
9675;SDS011;4876;42.656;23.292;2023-02-01T06:55:55;15.53;;;2.87;;
9675;SDS011;4876;42.656;23.292;2023-02-01T06:58:27;6.97;;;2.90;;
9675;SDS011;4876;42.656;23.292;2023-02-01T07:00:55;7.00;;;2.40;;
9675;SDS011;4876;42.656;23.292;2023-02-01T07:03:21;3.70;;;2.30;;
9675;SDS011;4876;42.656;23.292;2023-02-01T07:05:48;5.43;;;2.30;;
9675;SDS011;4876;42.656;23.292;2023-02-01T07:08:15;3.57;;;2.60;;
9675;SDS011;4876;42.656;23.292;2023-02-01T07:10:42;5.17;;;2.50;;
9675;SDS011;4876;42.656;23.292;2023-02-01T07:13:08;5.57;;;3.47;;
9675;SDS011;4876;42.656;23.292;2023-02-01T07:15:36;8.43;;;3.10;;
9675;SDS011;4876;42.656;23.292;2023-02-01T07:18:03;6.17;;;2.30;;
9675;SDS011;4876;42.656;23.292;2023-02-01T07:20:30;4.10;;;2.37;;
9675;SDS011;4876;42.656;23.292;2023-02-01T07:22:57;4.20;;;2.63;;
9675;SDS011;4876;42.656;23.292;2023-02-01T07:25:24;6.90;;;2.83;;
9675;SDS011;4876;42.656;23.292;2023-02-01T07:27:50;3.77;;;2.33;;
9675;SDS011;4876;42.656;23.292;2023-02-01T07:30:17;6.10;;;2.23;;
9675;SDS011;4876;42.656;23.292;2023-02-01T07:32:46;7.57;;;2.50;;
9675;SDS011;4876;42.656;23.292;2023-02-01T07:35:13;6.17;;;2.23;;
9675;SDS011;4876;42.656;23.292;2023-02-01T07:37:40;7.40;;;2.70;;
9675;SDS011;4876;42.656;23.292;2023-02-01T07:40:08;6.30;;;2.70;;
9675;SDS011;4876;42.656;23.292;2023-02-01T07:42:36;8.07;;;3.27;;
9675;SDS011;4876;42.656;23.292;2023-02-01T07:45:06;4.60;;;2.40;;
9675;SDS011;4876;42.656;23.292;2023-02-01T07:47:33;3.10;;;1.83;;
9675;SDS011;4876;42.656;23.292;2023-02-01T07:50:01;7.67;;;2.50;;
9675;SDS011;4876;42.656;23.292;2023-02-01T07:52:28;7.07;;;2.47;;
9675;SDS011;4876;42.656;23.292;2023-02-01T07:54:54;3.63;;;2.43;;
9675;SDS011;4876;42.656;23.292;2023-02-01T07:57:21;8.40;;;2.50;;
9675;SDS011;4876;42.656;23.292;2023-02-01T07:59:48;8.27;;;2.93;;
9675;SDS011;4876;42.656;23.292;2023-02-01T08:02:32;4.40;;;2.10;;
9675;SDS011;4876;42.656;23.292;2023-02-01T08:05:00;7.43;;;2.37;;
9675;SDS011;4876;42.656;23.292;2023-02-01T08:07:27;9.93;;;2.10;;
9675;SDS011;4876;42.656;23.292;2023-02-01T08:09:53;7.63;;;2.60;;
9675;SDS011;4876;42.656;23.292;2023-02-01T08:12:20;2.80;;;1.97;;
9675;SDS011;4876;42.656;23.292;2023-02-01T08:14:47;6.03;;;2.37;;
9675;SDS011;4876;42.656;23.292;2023-02-01T08:17:14;4.73;;;2.10;;
9675;SDS011;4876;42.656;23.292;2023-02-01T08:19:40;4.67;;;2.43;;
9675;SDS011;4876;42.656;23.292;2023-02-01T08:22:08;6.47;;;2.80;;
9675;SDS011;4876;42.656;23.292;2023-02-01T08:24:35;7.30;;;2.97;;
9675;SDS011;4876;42.656;23.292;2023-02-01T08:27:04;3.33;;;2.33;;
9675;SDS011;4876;42.656;23.292;2023-02-01T08:29:31;6.77;;;3.17;;
9675;SDS011;4876;42.656;23.292;2023-02-01T08:31:58;4.33;;;2.70;;
9675;SDS011;4876;42.656;23.292;2023-02-01T08:34:25;7.67;;;2.93;;
9675;SDS011;4876;42.656;23.292;2023-02-01T08:36:52;6.10;;;2.30;;
9675;SDS011;4876;42.656;23.292;2023-02-01T08:39:24;9.93;;;3.03;;
9675;SDS011;4876;42.656;23.292;2023-02-01T08:41:51;10.37;;;2.63;;
9675;SDS011;4876;42.656;23.292;2023-02-01T08:44:32;7.87;;;2.27;;
9675;SDS011;4876;42.656;23.292;2023-02-01T08:46:59;8.10;;;2.87;;
9675;SDS011;4876;42.656;23.292;2023-02-01T08:49:26;5.67;;;2.70;;
9675;SDS011;4876;42.656;23.292;2023-02-01T08:51:53;8.13;;;2.50;;
9675;SDS011;4876;42.656;23.292;2023-02-01T08:54:20;7.10;;;2.93;;
9675;SDS011;4876;42.656;23.292;2023-02-01T08:56:48;9.30;;;2.60;;
9675;SDS011;4876;42.656;23.292;2023-02-01T08:59:15;5.60;;;2.63;;
9675;SDS011;4876;42.656;23.292;2023-02-01T09:01:42;4.90;;;2.40;;
9675;SDS011;4876;42.656;23.292;2023-02-01T09:04:08;7.20;;;2.30;;
9675;SDS011;4876;42.656;23.292;2023-02-01T09:06:35;3.07;;;1.80;;
9675;SDS011;4876;42.656;23.292;2023-02-01T09:09:02;5.27;;;2.47;;
9675;SDS011;4876;42.656;23.292;2023-02-01T09:11:29;6.20;;;2.73;;
9675;SDS011;4876;42.656;23.292;2023-02-01T09:13:57;4.47;;;2.50;;
9675;SDS011;4876;42.656;23.292;2023-02-01T09:16:24;6.33;;;2.50;;
9675;SDS011;4876;42.656;23.292;2023-02-01T09:18:50;9.00;;;2.43;;
9675;SDS011;4876;42.656;23.292;2023-02-01T09:21:17;4.40;;;2.23;;
9675;SDS011;4876;42.656;23.292;2023-02-01T09:23:44;3.93;;;2.50;;
9675;SDS011;4876;42.656;23.292;2023-02-01T09:26:13;3.77;;;2.13;;
9675;SDS011;4876;42.656;23.292;2023-02-01T09:28:40;4.53;;;2.10;;
9675;SDS011;4876;42.656;23.292;2023-02-01T09:31:08;4.33;;;2.10;;
9675;SDS011;4876;42.656;23.292;2023-02-01T09:33:35;10.20;;;2.40;;
9675;SDS011;4876;42.656;23.292;2023-02-01T09:36:02;4.57;;;2.30;;
9675;SDS011;4876;42.656;23.292;2023-02-01T09:38:31;4.40;;;2.50;;
9675;SDS011;4876;42.656;23.292;2023-02-01T09:40:58;3.93;;;2.30;;
9675;SDS011;4876;42.656;23.292;2023-02-01T09:43:29;3.07;;;2.00;;
9675;SDS011;4876;42.656;23.292;2023-02-01T09:46:14;8.23;;;2.43;;
9675;SDS011;4876;42.656;23.292;2023-02-01T09:48:47;5.80;;;2.33;;
9675;SDS011;4876;42.656;23.292;2023-02-01T09:51:20;4.50;;;2.23;;
9675;SDS011;4876;42.656;23.292;2023-02-01T09:53:53;4.57;;;2.30;;
9675;SDS011;4876;42.656;23.292;2023-02-01T09:56:27;5.97;;;2.43;;
9675;SDS011;4876;42.656;23.292;2023-02-01T09:59:01;7.97;;;2.77;;
9675;SDS011;4876;42.656;23.292;2023-02-01T10:01:36;4.37;;;2.37;;
9675;SDS011;4876;42.656;23.292;2023-02-01T10:04:04;6.50;;;2.53;;
9675;SDS011;4876;42.656;23.292;2023-02-01T10:06:37;5.73;;;2.60;;
9675;SDS011;4876;42.656;23.292;2023-02-01T10:09:15;5.37;;;2.20;;
9675;SDS011;4876;42.656;23.292;2023-02-01T10:15:09;5.13;;;1.60;;
9675;SDS011;4876;42.656;23.292;2023-02-01T10:17:49;11.60;;;2.23;;
9675;SDS011;4876;42.656;23.292;2023-02-01T10:20:26;2.03;;;1.70;;
9675;SDS011;4876;42.656;23.292;2023-02-01T10:22:59;5.63;;;2.20;;
9675;SDS011;4876;42.656;23.292;2023-02-01T10:25:36;3.07;;;1.70;;
9675;SDS011;4876;42.656;23.292;2023-02-01T10:28:08;3.73;;;1.93;;
9675;SDS011;4876;42.656;23.292;2023-02-01T10:30:41;4.90;;;1.83;;
9675;SDS011;4876;42.656;23.292;2023-02-01T10:33:17;6.37;;;2.77;;
9675;SDS011;4876;42.656;23.292;2023-02-01T10:35:50;5.00;;;1.93;;
9675;SDS011;4876;42.656;23.292;2023-02-01T10:38:22;6.17;;;2.40;;
9675;SDS011;4876;42.656;23.292;2023-02-01T10:40:53;3.07;;;1.90;;
9675;SDS011;4876;42.656;23.292;2023-02-01T10:43:24;4.60;;;2.17;;
9675;SDS011;4876;42.656;23.292;2023-02-01T10:45:51;2.80;;;1.90;;
9675;SDS011;4876;42.656;23.292;2023-02-01T10:48:19;3.10;;;1.67;;
9675;SDS011;4876;42.656;23.292;2023-02-01T10:50:48;3.97;;;1.70;;
9675;SDS011;4876;42.656;23.292;2023-02-01T10:53:21;7.20;;;1.90;;
9675;SDS011;4876;42.656;23.292;2023-02-01T10:55:55;5.07;;;1.83;;
9675;SDS011;4876;42.656;23.292;2023-02-01T10:58:26;5.27;;;2.07;;
9675;SDS011;4876;42.656;23.292;2023-02-01T11:00:56;7.17;;;1.57;;
9675;SDS011;4876;42.656;23.292;2023-02-01T11:03:36;3.67;;;1.90;;
9675;SDS011;4876;42.656;23.292;2023-02-01T11:06:10;8.70;;;2.30;;
9675;SDS011;4876;42.656;23.292;2023-02-01T11:08:42;5.00;;;2.00;;
9675;SDS011;4876;42.656;23.292;2023-02-01T11:11:11;2.50;;;1.70;;
9675;SDS011;4876;42.656;23.292;2023-02-01T11:13:39;4.63;;;1.90;;
9675;SDS011;4876;42.656;23.292;2023-02-01T11:16:08;4.40;;;2.33;;
9675;SDS011;4876;42.656;23.292;2023-02-01T11:18:40;4.13;;;2.13;;
9675;SDS011;4876;42.656;23.292;2023-02-01T11:21:08;5.63;;;2.00;;
9675;SDS011;4876;42.656;23.292;2023-02-01T11:23:40;5.70;;;2.43;;
9675;SDS011;4876;42.656;23.292;2023-02-01T11:26:10;5.63;;;2.20;;
9675;SDS011;4876;42.656;23.292;2023-02-01T11:28:40;5.73;;;2.10;;
9675;SDS011;4876;42.656;23.292;2023-02-01T11:31:12;3.63;;;1.80;;
9675;SDS011;4876;42.656;23.292;2023-02-01T11:33:45;3.60;;;1.77;;
9675;SDS011;4876;42.656;23.292;2023-02-01T11:36:17;3.30;;;2.10;;
9675;SDS011;4876;42.656;23.292;2023-02-01T11:38:50;4.57;;;1.73;;
9675;SDS011;4876;42.656;23.292;2023-02-01T11:41:21;4.27;;;1.97;;
9675;SDS011;4876;42.656;23.292;2023-02-01T11:43:53;9.40;;;4.13;;
9675;SDS011;4876;42.656;23.292;2023-02-01T11:46:23;8.87;;;1.80;;
9675;SDS011;4876;42.656;23.292;2023-02-01T11:48:55;3.17;;;1.97;;
9675;SDS011;4876;42.656;23.292;2023-02-01T11:54:20;7.00;;;2.10;;
9675;SDS011;4876;42.656;23.292;2023-02-01T11:57:03;10.27;;;2.60;;
9675;SDS011;4876;42.656;23.292;2023-02-01T11:59:51;5.47;;;2.30;;
9675;SDS011;4876;42.656;23.292;2023-02-01T12:02:36;6.03;;;2.00;;
9675;SDS011;4876;42.656;23.292;2023-02-01T12:05:22;8.83;;;2.33;;
9675;SDS011;4876;42.656;23.292;2023-02-01T12:08:04;5.73;;;2.20;;
9675;SDS011;4876;42.656;23.292;2023-02-01T12:10:52;6.13;;;2.20;;
9675;SDS011;4876;42.656;23.292;2023-02-01T12:13:30;6.93;;;2.00;;
9675;SDS011;4876;42.656;23.292;2023-02-01T12:16:09;4.77;;;1.90;;
9675;SDS011;4876;42.656;23.292;2023-02-01T12:18:50;3.43;;;2.10;;
9675;SDS011;4876;42.656;23.292;2023-02-01T12:21:38;3.10;;;1.40;;
9675;SDS011;4876;42.656;23.292;2023-02-01T12:27:16;3.13;;;1.70;;
9675;SDS011;4876;42.656;23.292;2023-02-01T12:30:14;2.83;;;2.00;;
9675;SDS011;4876;42.656;23.292;2023-02-01T12:32:57;8.27;;;1.80;;
9675;SDS011;4876;42.656;23.292;2023-02-01T12:35:47;7.43;;;2.73;;
9675;SDS011;4876;42.656;23.292;2023-02-01T12:38:38;2.87;;;1.90;;
9675;SDS011;4876;42.656;23.292;2023-02-01T12:41:21;4.27;;;1.60;;
9675;SDS011;4876;42.656;23.292;2023-02-01T12:43:58;2.43;;;1.97;;
9675;SDS011;4876;42.656;23.292;2023-02-01T12:46:32;5.30;;;2.00;;
9675;SDS011;4876;42.656;23.292;2023-02-01T12:49:04;2.93;;;2.00;;
9675;SDS011;4876;42.656;23.292;2023-02-01T12:51:36;6.27;;;1.73;;
9675;SDS011;4876;42.656;23.292;2023-02-01T12:54:09;2.33;;;1.40;;
9675;SDS011;4876;42.656;23.292;2023-02-01T12:56:42;3.60;;;1.67;;
9675;SDS011;4876;42.656;23.292;2023-02-01T12:59:15;4.30;;;1.90;;
9675;SDS011;4876;42.656;23.292;2023-02-01T13:01:48;5.23;;;2.10;;
9675;SDS011;4876;42.656;23.292;2023-02-01T13:04:24;5.80;;;2.20;;
9675;SDS011;4876;42.656;23.292;2023-02-01T13:06:57;3.03;;;2.00;;
9675;SDS011;4876;42.656;23.292;2023-02-01T13:09:34;5.00;;;2.00;;
9675;SDS011;4876;42.656;23.292;2023-02-01T13:12:12;2.33;;;1.67;;
9675;SDS011;4876;42.656;23.292;2023-02-01T13:14:44;3.80;;;2.23;;
9675;SDS011;4876;42.656;23.292;2023-02-01T13:17:16;2.53;;;1.90;;
9675;SDS011;4876;42.656;23.292;2023-02-01T13:19:50;3.23;;;2.00;;
9675;SDS011;4876;42.656;23.292;2023-02-01T13:22:23;3.80;;;1.90;;
9675;SDS011;4876;42.656;23.292;2023-02-01T13:24:56;3.07;;;2.10;;
9675;SDS011;4876;42.656;23.292;2023-02-01T13:27:26;4.60;;;2.00;;
9675;SDS011;4876;42.656;23.292;2023-02-01T13:29:56;3.20;;;1.53;;
9675;SDS011;4876;42.656;23.292;2023-02-01T13:32:39;2.93;;;2.00;;
9675;SDS011;4876;42.656;23.292;2023-02-01T13:35:20;3.70;;;1.70;;
9675;SDS011;4876;42.656;23.292;2023-02-01T13:38:03;5.17;;;2.00;;
9675;SDS011;4876;42.656;23.292;2023-02-01T13:40:42;3.23;;;1.40;;
9675;SDS011;4876;42.656;23.292;2023-02-01T13:43:14;3.60;;;1.77;;
9675;SDS011;4876;42.656;23.292;2023-02-01T13:45:46;4.07;;;2.00;;
9675;SDS011;4876;42.656;23.292;2023-02-01T13:48:18;6.37;;;2.13;;
9675;SDS011;4876;42.656;23.292;2023-02-01T13:50:50;3.80;;;1.47;;
9675;SDS011;4876;42.656;23.292;2023-02-01T13:53:21;5.87;;;1.73;;
9675;SDS011;4876;42.656;23.292;2023-02-01T13:55:58;3.77;;;1.70;;
9675;SDS011;4876;42.656;23.292;2023-02-01T13:58:31;5.47;;;2.00;;
9675;SDS011;4876;42.656;23.292;2023-02-01T14:07:16;7.87;;;1.70;;
9675;SDS011;4876;42.656;23.292;2023-02-01T14:09:45;3.37;;;1.67;;
9675;SDS011;4876;42.656;23.292;2023-02-01T14:15:17;2.90;;;2.00;;
9675;SDS011;4876;42.656;23.292;2023-02-01T14:17:50;4.67;;;2.10;;
9675;SDS011;4876;42.656;23.292;2023-02-01T14:23:22;3.27;;;1.80;;
9675;SDS011;4876;42.656;23.292;2023-02-01T14:26:07;5.60;;;1.90;;
9675;SDS011;4876;42.656;23.292;2023-02-01T14:28:44;4.57;;;1.73;;
9675;SDS011;4876;42.656;23.292;2023-02-01T14:31:17;4.33;;;2.03;;
9675;SDS011;4876;42.656;23.292;2023-02-01T14:34:09;7.50;;;2.27;;
9675;SDS011;4876;42.656;23.292;2023-02-01T14:36:50;3.47;;;2.07;;
9675;SDS011;4876;42.656;23.292;2023-02-01T14:39:20;3.87;;;2.20;;
9675;SDS011;4876;42.656;23.292;2023-02-01T14:41:52;5.83;;;1.90;;
9675;SDS011;4876;42.656;23.292;2023-02-01T14:44:25;3.00;;;1.57;;
9675;SDS011;4876;42.656;23.292;2023-02-01T14:47:11;3.90;;;2.27;;
9675;SDS011;4876;42.656;23.292;2023-02-01T14:49:55;4.30;;;2.23;;
9675;SDS011;4876;42.656;23.292;2023-02-01T14:52:29;3.53;;;1.50;;
9675;SDS011;4876;42.656;23.292;2023-02-01T14:55:01;5.00;;;1.90;;
9675;SDS011;4876;42.656;23.292;2023-02-01T14:57:32;5.90;;;1.50;;
9675;SDS011;4876;42.656;23.292;2023-02-01T15:00:14;6.53;;;2.63;;
9675;SDS011;4876;42.656;23.292;2023-02-01T15:02:45;8.43;;;2.67;;
9675;SDS011;4876;42.656;23.292;2023-02-01T15:05:23;4.57;;;2.77;;
9675;SDS011;4876;42.656;23.292;2023-02-01T15:07:55;3.90;;;2.13;;
9675;SDS011;4876;42.656;23.292;2023-02-01T15:10:23;3.20;;;2.27;;
9675;SDS011;4876;42.656;23.292;2023-02-01T15:12:51;5.03;;;2.90;;
9675;SDS011;4876;42.656;23.292;2023-02-01T15:15:19;5.03;;;2.83;;
9675;SDS011;4876;42.656;23.292;2023-02-01T15:17:51;6.30;;;2.20;;
9675;SDS011;4876;42.656;23.292;2023-02-01T15:20:21;3.97;;;1.93;;
9675;SDS011;4876;42.656;23.292;2023-02-01T15:22:53;8.97;;;2.10;;
9675;SDS011;4876;42.656;23.292;2023-02-01T15:25:24;4.50;;;1.67;;
9675;SDS011;4876;42.656;23.292;2023-02-01T15:27:52;2.70;;;1.70;;
9675;SDS011;4876;42.656;23.292;2023-02-01T15:30:21;6.53;;;1.67;;
9675;SDS011;4876;42.656;23.292;2023-02-01T15:32:51;10.43;;;2.17;;
9675;SDS011;4876;42.656;23.292;2023-02-01T15:35:33;4.13;;;1.67;;
9675;SDS011;4876;42.656;23.292;2023-02-01T15:38:18;1.60;;;1.10;;
9675;SDS011;4876;42.656;23.292;2023-02-01T15:41:01;9.00;;;1.90;;
9675;SDS011;4876;42.656;23.292;2023-02-01T15:43:31;2.80;;;1.20;;
9675;SDS011;4876;42.656;23.292;2023-02-01T15:46:02;10.40;;;2.63;;